Time;durP1;ratioP1;P1;durP2;ratioP2;P2;SDS_P1;SDS_P2;PMS_P1;PMS_P2;Temp;Humidity;BMP_temperature;BMP_pressure;BME280_temperature;BME280_humidity;BME280_pressure;Samples;Min_cycle;Max_cycle;Signal;HPM_P1;HPM_P2
2022/08/22 00:01:49;;;;;;;9.57;5.47;;;19.60;60.80;;;;;;5075902;28;20484;-81
2022/08/22 00:04:24;;;;;;;7.83;4.57;;;19.60;60.90;;;;;;5073567;28;20489;-80
2022/08/22 00:06:59;;;;;;;8.07;4.53;;;19.60;61.10;;;;;;5078574;28;20490;-79
2022/08/22 00:09:34;;;;;;;9.00;5.20;;;19.60;61.20;;;;;;5077204;28;20462;-79
2022/08/22 00:12:19;;;;;;;9.20;4.77;;;19.60;61.20;;;;;;5078634;28;20454;-80
2022/08/22 00:14:53;;;;;;;9.17;4.80;;;19.60;61.20;;;;;;5075312;28;20477;-81
2022/08/22 00:17:39;;;;;;;7.67;4.50;;;19.50;61.20;;;;;;5074692;28;20479;-80
2022/08/22 00:20:14;;;;;;;7.83;4.50;;;19.50;61.20;;;;;;5074633;28;20466;-80
2022/08/22 00:22:48;;;;;;;7.47;4.47;;;19.50;61.20;;;;;;5071739;28;21011;-80
2022/08/22 00:25:36;;;;;;;8.60;5.30;;;19.40;61.30;;;;;;5081556;28;20511;-80
2022/08/22 00:28:10;;;;;;;9.17;5.77;;;19.40;61.40;;;;;;5079702;28;21007;-81
2022/08/22 00:30:48;;;;;;;8.60;4.60;;;19.40;61.40;;;;;;5078659;28;20718;-81
2022/08/22 00:33:26;;;;;;;8.67;5.03;;;19.40;61.50;;;;;;5086341;28;20443;-81
2022/08/22 00:36:07;;;;;;;9.40;5.07;;;19.30;61.60;;;;;;5086014;28;20915;-80
2022/08/22 00:38:41;;;;;;;10.20;5.67;;;19.30;61.70;;;;;;5084507;28;20451;-80
2022/08/22 00:41:23;;;;;;;10.30;5.37;;;19.30;61.80;;;;;;5087487;28;20455;-80
2022/08/22 00:44:04;;;;;;;9.60;5.80;;;19.20;62.00;;;;;;5087866;28;20477;-80
2022/08/22 00:47:19;;;;;;;8.77;5.47;;;19.20;62.10;;;;;;5070832;28;20475;-80
2022/08/22 00:50:17;;;;;;;8.40;5.30;;;19.20;62.10;;;;;;5084442;28;20466;-80
2022/08/22 00:53:02;;;;;;;8.90;5.37;;;19.20;62.20;;;;;;5075547;28;20989;-80
2022/08/22 00:55:43;;;;;;;10.20;5.70;;;19.10;62.20;;;;;;5082866;28;20546;-80
2022/08/22 00:58:40;;;;;;;10.53;5.80;;;19.10;62.30;;;;;;5079082;28;20515;-80
2022/08/22 01:01:12;;;;;;;8.93;4.67;;;19.10;62.30;;;;;;5083010;28;20786;-80
2022/08/22 01:04:15;;;;;;;8.33;4.73;;;19.10;62.40;;;;;;5080763;28;20537;-78
2022/08/22 01:06:57;;;;;;;8.73;5.37;;;19.10;62.40;;;;;;5076873;28;20479;-79
2022/08/22 01:09:42;;;;;;;7.77;4.63;;;19.10;62.30;;;;;;5079352;28;20794;-78
2022/08/22 01:12:33;;;;;;;11.50;5.43;;;19.00;62.30;;;;;;5081799;28;20974;-79
2022/08/22 01:15:05;;;;;;;10.07;5.10;;;19.00;62.30;;;;;;5074731;28;20473;-80
2022/08/22 01:17:54;;;;;;;11.33;5.47;;;19.00;62.30;;;;;;5075833;28;20472;-79
2022/08/22 01:20:55;;;;;;;8.80;4.73;;;19.00;62.30;;;;;;5082245;28;20466;-81
2022/08/22 01:23:44;;;;;;;10.83;6.03;;;18.90;62.30;;;;;;5061612;28;21610;-80
2022/08/22 01:26:44;;;;;;;10.40;6.07;;;18.90;62.40;;;;;;5075998;28;20486;-81
2022/08/22 01:29:44;;;;;;;9.40;4.60;;;18.80;62.60;;;;;;5083714;28;20457;-80
2022/08/22 01:32:49;;;;;;;7.80;4.87;;;18.80;62.40;;;;;;5078045;28;21116;-82
2022/08/22 01:35:45;;;;;;;8.33;4.87;;;18.70;62.40;;;;;;5080238;28;20492;-79
2022/08/22 01:38:37;;;;;;;8.07;5.33;;;18.60;62.40;;;;;;5077303;28;20455;-80
2022/08/22 01:41:25;;;;;;;11.43;5.90;;;18.60;62.30;;;;;;5076885;28;20466;-80
2022/08/22 01:44:11;;;;;;;9.63;5.50;;;18.50;62.40;;;;;;5079651;28;20462;-80
2022/08/22 01:46:54;;;;;;;9.97;5.83;;;18.40;62.40;;;;;;5080899;28;21044;-80
2022/08/22 01:49:27;;;;;;;8.80;5.40;;;18.30;62.60;;;;;;5080800;28;20454;-80
2022/08/22 01:52:04;;;;;;;12.40;5.40;;;18.30;62.80;;;;;;5080478;28;20454;-80
2022/08/22 01:54:43;;;;;;;10.10;5.47;;;18.20;62.80;;;;;;5085666;28;20822;-80
2022/08/22 01:57:12;;;;;;;8.17;4.97;;;18.20;62.90;;;;;;5079964;28;20912;-80
2022/08/22 01:59:43;;;;;;;8.93;4.97;;;18.30;63.00;;;;;;5081414;28;20447;-79
2022/08/22 02:02:36;;;;;;;9.40;5.40;;;18.20;62.90;;;;;;5079056;28;20464;-80
2022/08/22 02:05:11;;;;;;;9.63;5.03;;;18.30;63.00;;;;;;5063918;28;20489;-80
2022/08/22 02:07:48;;;;;;;8.80;5.07;;;18.20;63.10;;;;;;5078489;28;20465;-81
2022/08/22 02:10:22;;;;;;;10.23;5.40;;;18.30;63.10;;;;;;5079870;28;20500;-80
2022/08/22 02:13:02;;;;;;;11.50;6.33;;;18.20;62.90;;;;;;5079890;28;20456;-79
2022/08/22 02:15:44;;;;;;;9.70;6.00;;;18.20;63.00;;;;;;5081141;28;20475;-80
2022/08/22 02:18:18;;;;;;;10.40;5.80;;;18.10;63.10;;;;;;5077455;28;20804;-79
2022/08/22 02:20:59;;;;;;;12.93;6.03;;;18.10;63.10;;;;;;5077427;28;20453;-79
2022/08/22 02:23:36;;;;;;;10.03;5.70;;;18.10;63.20;;;;;;5078913;28;20472;-80
2022/08/22 02:26:09;;;;;;;13.07;6.10;;;18.00;63.20;;;;;;5082075;28;20530;-80
2022/08/22 02:28:46;;;;;;;12.27;5.90;;;17.80;63.30;;;;;;5080637;28;20449;-80
2022/08/22 02:31:35;;;;;;;8.80;5.63;;;17.70;63.60;;;;;;5083215;28;21206;-78
2022/08/22 02:34:20;;;;;;;9.13;6.23;;;17.60;63.90;;;;;;5084101;28;20461;-80
2022/08/22 02:36:53;;;;;;;12.13;5.83;;;17.60;64.00;;;;;;5078281;28;20507;-80
2022/08/22 02:39:34;;;;;;;9.70;5.53;;;17.60;64.10;;;;;;5076739;28;20514;-80
2022/08/22 02:42:16;;;;;;;10.57;5.93;;;17.60;64.20;;;;;;5076316;28;20460;-80
2022/08/22 02:45:01;;;;;;;10.33;5.90;;;17.70;64.30;;;;;;5077579;28;20450;-79
2022/08/22 02:47:35;;;;;;;11.27;6.10;;;17.70;64.40;;;;;;5080784;28;20471;-81
2022/08/22 02:50:13;;;;;;;9.50;5.40;;;17.80;64.40;;;;;;5079803;28;20461;-78
2022/08/22 02:52:55;;;;;;;9.23;5.70;;;17.80;64.30;;;;;;5079893;28;20445;-81
2022/08/22 02:55:39;;;;;;;9.87;5.63;;;17.80;64.30;;;;;;5079758;28;20579;-80
2022/08/22 02:58:14;;;;;;;10.73;5.93;;;17.80;64.40;;;;;;5095784;28;20454;-81
2022/08/22 03:00:46;;;;;;;9.80;5.87;;;17.80;64.40;;;;;;5080064;28;20471;-81
2022/08/22 03:03:19;;;;;;;9.60;5.70;;;17.80;64.40;;;;;;5063188;28;20861;-80
2022/08/22 03:06:00;;;;;;;11.30;6.50;;;17.80;64.40;;;;;;5080751;28;20473;-79
2022/08/22 03:08:33;;;;;;;12.17;6.00;;;17.80;64.50;;;;;;5079102;28;21663;-79
2022/08/22 03:11:13;;;;;;;9.20;5.83;;;17.80;64.50;;;;;;5080610;28;20445;-80
2022/08/22 03:13:53;;;;;;;8.43;5.40;;;17.70;64.60;;;;;;5076764;28;20452;-78
2022/08/22 03:16:27;;;;;;;8.40;5.20;;;17.80;64.70;;;;;;5077594;28;20485;-81
2022/08/22 03:19:01;;;;;;;10.83;5.57;;;17.70;64.60;;;;;;5074151;28;20464;-80
2022/08/22 03:21:35;;;;;;;9.33;5.67;;;17.70;64.70;;;;;;5077079;28;20457;-81
2022/08/22 03:24:10;;;;;;;10.57;5.53;;;17.60;64.60;;;;;;5065266;28;20470;-80
2022/08/22 03:26:46;;;;;;;12.87;6.70;;;17.60;64.80;;;;;;5077974;28;20491;-79
2022/08/22 03:29:20;;;;;;;13.10;6.37;;;17.50;65.00;;;;;;5056233;28;20469;-79
2022/08/22 03:32:09;;;;;;;8.90;6.33;;;17.40;65.20;;;;;;5073103;28;20469;-80
2022/08/22 03:34:38;;;;;;;9.47;5.60;;;17.40;65.40;;;;;;5079510;28;20471;-81
2022/08/22 03:37:13;;;;;;;9.70;5.63;;;17.40;65.60;;;;;;5080308;28;20481;-79
2022/08/22 03:39:59;;;;;;;10.17;5.60;;;17.50;65.70;;;;;;5073450;28;20449;-79
2022/08/22 03:43:07;;;;;;;8.07;5.50;;;17.50;65.70;;;;;;5076738;28;20831;-81
2022/08/22 03:46:03;;;;;;;10.97;5.70;;;17.60;65.60;;;;;;5059510;28;20457;-80
2022/08/22 03:48:49;;;;;;;8.50;5.67;;;17.60;65.60;;;;;;5075198;28;20463;-81
2022/08/22 03:51:30;;;;;;;8.60;5.57;;;17.60;65.60;;;;;;5074167;28;21090;-81
2022/08/22 03:54:28;;;;;;;10.17;6.10;;;17.60;65.50;;;;;;5081932;28;20453;-80
2022/08/22 03:57:36;;;;;;;9.83;6.03;;;17.60;65.50;;;;;;5078587;28;20487;-80
2022/08/22 04:00:28;;;;;;;8.63;5.97;;;17.60;65.50;;;;;;5075093;28;20736;-80
2022/08/22 04:03:16;;;;;;;9.23;6.07;;;17.60;65.50;;;;;;5077697;28;20928;-80
2022/08/22 04:06:06;;;;;;;9.60;5.77;;;17.50;65.60;;;;;;5079501;28;20481;-80
2022/08/22 04:09:12;;;;;;;10.83;6.20;;;17.60;65.70;;;;;;5081660;28;20453;-80
2022/08/22 04:12:02;;;;;;;13.20;6.77;;;17.60;65.80;;;;;;5049335;28;20544;-80
2022/08/22 04:14:58;;;;;;;9.33;5.83;;;17.60;65.70;;;;;;5084546;28;20457;-80
2022/08/22 04:17:51;;;;;;;11.00;6.77;;;17.60;65.70;;;;;;5081402;28;20718;-80
2022/08/22 04:21:05;;;;;;;9.30;5.40;;;17.50;65.80;;;;;;5098169;28;20793;-79
2022/08/22 04:24:01;;;;;;;10.30;5.77;;;17.50;65.90;;;;;;5076694;28;20465;-81
2022/08/22 04:26:36;;;;;;;7.63;5.43;;;17.50;65.70;;;;;;5067309;28;20490;-78
2022/08/22 04:29:08;;;;;;;9.03;5.97;;;17.40;65.80;;;;;;5066884;28;20471;-81
2022/08/22 04:31:45;;;;;;;9.97;6.30;;;17.30;65.80;;;;;;5076882;28;20478;-81
2022/08/22 04:34:20;;;;;;;12.47;6.10;;;17.30;65.80;;;;;;5076563;28;20452;-80
2022/08/22 04:36:56;;;;;;;9.70;6.00;;;17.30;65.70;;;;;;5066778;28;20476;-80
2022/08/22 04:39:32;;;;;;;9.70;6.27;;;17.20;65.90;;;;;;5081074;28;20446;-79
2022/08/22 04:42:05;;;;;;;9.70;5.57;;;17.30;66.10;;;;;;5096524;28;20886;-81
2022/08/22 04:45:00;;;;;;;10.20;5.97;;;17.30;66.10;;;;;;5076154;28;20879;-83
2022/08/22 04:47:33;;;;;;;8.30;5.50;;;17.30;66.20;;;;;;5075190;28;21222;-79
2022/08/22 04:50:14;;;;;;;9.63;6.00;;;17.40;66.10;;;;;;5065522;28;20491;-81
2022/08/22 04:52:59;;;;;;;13.03;5.70;;;17.40;66.20;;;;;;5076578;28;20454;-81
2022/08/22 04:55:33;;;;;;;10.87;6.10;;;17.40;66.20;;;;;;5081813;28;20479;-80
2022/08/22 04:58:10;;;;;;;10.83;5.93;;;17.40;66.20;;;;;;5084506;28;20474;-79
2022/08/22 05:00:54;;;;;;;9.67;6.77;;;17.50;66.30;;;;;;5088019;28;20918;-79
2022/08/22 05:03:27;;;;;;;9.73;6.13;;;17.60;66.40;;;;;;5061115;28;20564;-82
2022/08/22 05:05:59;;;;;;;11.37;6.00;;;17.80;66.80;;;;;;5079070;28;20982;-81
2022/08/22 05:08:32;;;;;;;11.90;6.23;;;18.30;66.50;;;;;;5079440;28;20446;-80
2022/08/22 05:11:02;;;;;;;9.33;4.77;;;19.00;66.10;;;;;;5083579;28;20451;-80
2022/08/22 05:13:36;;;;;;;11.23;6.43;;;19.70;65.30;;;;;;5077454;28;20802;-80
2022/08/22 05:16:11;;;;;;;12.20;7.33;;;20.40;64.30;;;;;;5081825;28;20481;-80
2022/08/22 05:18:45;;;;;;;12.03;7.67;;;21.00;63.50;;;;;;5080382;28;20481;-81
2022/08/22 05:21:17;;;;;;;16.70;7.70;;;21.60;62.70;;;;;;5082224;28;21164;-79
2022/08/22 05:23:51;;;;;;;20.17;10.20;;;22.10;62.00;;;;;;5075883;28;20446;-81
2022/08/22 05:26:20;;;;;;;15.27;7.87;;;22.60;61.20;;;;;;5082150;28;20498;-81
2022/08/22 05:28:53;;;;;;;12.40;6.60;;;23.10;60.50;;;;;;5080557;28;21133;-78
2022/08/22 05:31:25;;;;;;;14.40;5.83;;;23.60;60.00;;;;;;5081990;28;20472;-81
2022/08/22 05:33:58;;;;;;;14.33;6.20;;;24.10;59.30;;;;;;5062827;28;20481;-81
2022/08/22 05:36:32;;;;;;;10.13;5.53;;;24.60;58.80;;;;;;5063616;28;20481;-80
2022/08/22 05:39:04;;;;;;;15.13;5.83;;;25.20;57.90;;;;;;5078987;28;20490;-79
2022/08/22 05:41:36;;;;;;;7.47;5.17;;;25.80;57.40;;;;;;5078944;28;20965;-81
2022/08/22 05:44:06;;;;;;;10.00;5.90;;;26.40;56.50;;;;;;5083515;28;20442;-80
2022/08/22 05:46:40;;;;;;;10.73;5.60;;;27.00;55.20;;;;;;5075558;28;20483;-81
2022/08/22 05:49:18;;;;;;;9.23;5.27;;;27.40;54.60;;;;;;5076259;28;20450;-79
2022/08/22 05:52:02;;;;;;;15.23;6.30;;;27.90;53.50;;;;;;5080370;28;20451;-82
2022/08/22 05:54:36;;;;;;;10.83;6.80;;;27.60;52.10;;;;;;5078135;28;20452;-80
2022/08/22 05:57:11;;;;;;;9.00;6.90;;;26.40;51.90;;;;;;5099172;27;20480;-80
2022/08/22 05:59:42;;;;;;;12.40;7.93;;;25.00;52.70;;;;;;5066528;28;20460;-79
2022/08/22 06:02:18;;;;;;;15.60;8.50;;;23.80;53.90;;;;;;5078842;28;20487;-79
2022/08/22 06:04:50;;;;;;;14.20;7.10;;;22.70;55.00;;;;;;5076387;28;20446;-79
2022/08/22 06:07:25;;;;;;;12.37;7.53;;;21.90;56.30;;;;;;5076323;28;20484;-79
2022/08/22 06:10:07;;;;;;;14.10;7.20;;;21.30;57.40;;;;;;5082468;28;20467;-81
2022/08/22 06:12:39;;;;;;;11.67;7.40;;;20.80;58.60;;;;;;5079198;28;20471;-81
2022/08/22 06:15:14;;;;;;;9.57;7.20;;;20.50;59.50;;;;;;5078556;28;20907;-80
2022/08/22 06:17:50;;;;;;;14.57;7.47;;;20.30;60.30;;;;;;5079323;28;20643;-80
2022/08/22 06:20:20;;;;;;;9.93;6.80;;;20.20;60.90;;;;;;5084105;28;20464;-80
2022/08/22 06:22:54;;;;;;;11.33;6.37;;;20.00;61.80;;;;;;5079503;28;20492;-80
2022/08/22 06:25:26;;;;;;;12.13;6.70;;;20.00;62.30;;;;;;5069440;28;20478;-81
2022/08/22 06:27:56;;;;;;;12.50;7.40;;;20.00;63.10;;;;;;5081098;28;21027;-81
2022/08/22 06:30:28;;;;;;;9.13;6.97;;;20.00;64.20;;;;;;5081358;28;20456;-80
2022/08/22 06:33:01;;;;;;;9.83;6.70;;;20.00;64.20;;;;;;5067196;28;20456;-81
2022/08/22 06:36:29;;;;;;;13.20;8.60;;;20.00;65.10;;;;;;5082651;28;20487;-81
2022/08/22 06:38:28;;;;;;;12.40;7.83;;;19.90;65.80;;;;;;5079791;28;20546;-79
2022/08/22 06:41:00;;;;;;;11.43;7.57;;;19.90;66.00;;;;;;5084951;28;20470;-82
2022/08/22 06:43:36;;;;;;;10.13;7.47;;;19.90;66.70;;;;;;5082473;28;20509;-80
2022/08/22 06:46:05;;;;;;;12.53;8.17;;;19.90;67.20;;;;;;5082984;28;20479;-80
2022/08/22 06:48:36;;;;;;;11.17;7.40;;;19.90;67.90;;;;;;5066102;28;20467;-81
2022/08/22 06:51:07;;;;;;;10.33;6.90;;;19.90;67.70;;;;;;5086144;28;20456;-80
2022/08/22 06:53:43;;;;;;;10.17;7.20;;;20.00;67.70;;;;;;5073248;28;20460;-81
2022/08/22 06:56:21;;;;;;;12.07;7.30;;;20.00;68.00;;;;;;5079830;28;20557;-80
2022/08/22 06:58:52;;;;;;;10.63;7.17;;;20.10;68.10;;;;;;5076852;28;20475;-79
2022/08/22 07:01:24;;;;;;;11.07;6.67;;;20.10;68.20;;;;;;5079523;28;20476;-81
2022/08/22 07:03:54;;;;;;;11.00;6.77;;;20.20;68.40;;;;;;5081303;28;20460;-81
2022/08/22 07:06:30;;;;;;;10.50;7.20;;;20.20;68.40;;;;;;5079476;28;20488;-81
2022/08/22 07:08:59;;;;;;;11.17;6.90;;;20.30;68.90;;;;;;5067875;28;20468;-81
2022/08/22 07:11:39;;;;;;;15.40;7.67;;;20.40;68.70;;;;;;5083358;28;20451;-79
2022/08/22 07:14:10;;;;;;;9.57;6.30;;;20.40;69.10;;;;;;5084540;28;20468;-79
2022/08/22 07:16:42;;;;;;;12.80;6.37;;;20.50;69.00;;;;;;5075190;28;20481;-81
2022/08/22 07:19:23;;;;;;;8.60;6.20;;;20.60;69.00;;;;;;5081111;28;20484;-82
2022/08/22 07:21:51;;;;;;;9.80;6.70;;;20.60;69.00;;;;;;5080516;28;20472;-79
2022/08/22 07:24:24;;;;;;;11.10;5.83;;;20.70;69.10;;;;;;5076800;28;20510;-80
2022/08/22 07:27:07;;;;;;;8.67;5.70;;;20.80;69.10;;;;;;5058997;28;21053;-80
2022/08/22 07:29:45;;;;;;;11.93;6.70;;;20.80;69.30;;;;;;5078456;28;20538;-82
2022/08/22 07:32:18;;;;;;;10.57;6.97;;;20.90;69.20;;;;;;5059974;28;20488;-80
2022/08/22 07:35:06;;;;;;;12.73;6.63;;;21.00;69.10;;;;;;5080325;28;20449;-81
2022/08/22 07:37:55;;;;;;;9.73;6.50;;;21.10;69.10;;;;;;5068804;28;20453;-80
2022/08/22 07:40:31;;;;;;;13.47;6.30;;;21.20;69.10;;;;;;5077555;28;21331;-81
2022/08/22 07:43:04;;;;;;;7.50;5.10;;;21.20;69.00;;;;;;5079906;28;20486;-82
2022/08/22 07:45:36;;;;;;;8.53;5.73;;;21.30;69.00;;;;;;5077690;28;21167;-81
2022/08/22 07:48:15;;;;;;;9.07;6.13;;;21.40;68.90;;;;;;5079158;28;20807;-80
2022/08/22 07:51:04;;;;;;;8.80;5.70;;;21.50;68.80;;;;;;5082624;28;20919;-80
2022/08/22 07:53:42;;;;;;;10.80;5.93;;;21.60;68.60;;;;;;5082078;28;20464;-79
2022/08/22 07:56:15;;;;;;;8.70;5.07;;;21.70;68.50;;;;;;5081900;28;21384;-79
2022/08/22 07:58:45;;;;;;;8.70;5.67;;;21.80;68.30;;;;;;5085765;28;21170;-82
2022/08/22 08:01:17;;;;;;;8.13;5.00;;;21.90;68.20;;;;;;5079178;28;20508;-81
2022/08/22 08:03:52;;;;;;;11.97;4.20;;;21.90;67.90;;;;;;5073715;28;20461;-81
2022/08/22 08:06:23;;;;;;;10.43;5.30;;;22.00;67.70;;;;;;5080490;28;20470;-83
2022/08/22 08:08:52;;;;;;;11.67;5.10;;;22.10;67.60;;;;;;5079900;28;20453;-82
2022/08/22 08:11:23;;;;;;;8.00;4.77;;;22.20;67.50;;;;;;5090068;28;20458;-80
2022/08/22 08:13:54;;;;;;;7.37;4.40;;;22.30;67.30;;;;;;5074182;28;21002;-82
2022/08/22 08:16:26;;;;;;;6.93;4.27;;;22.30;67.10;;;;;;5077014;28;21001;-81
2022/08/22 08:18:58;;;;;;;6.87;3.70;;;22.40;66.70;;;;;;5080081;28;20476;-80
2022/08/22 08:21:30;;;;;;;7.93;3.63;;;22.40;66.30;;;;;;5076975;28;20465;-82
2022/08/22 08:24:00;;;;;;;9.50;3.03;;;22.50;65.60;;;;;;5068729;28;20469;-82
2022/08/22 08:26:34;;;;;;;6.53;3.70;;;22.60;65.10;;;;;;5080827;28;20486;-82
2022/08/22 08:29:02;;;;;;;6.37;3.47;;;22.70;64.20;;;;;;5079559;28;20439;-82
2022/08/22 08:31:34;;;;;;;6.00;3.67;;;22.80;64.00;;;;;;5078196;28;20476;-83
2022/08/22 08:34:06;;;;;;;8.27;3.70;;;22.90;63.30;;;;;;5081705;28;20446;-82
2022/08/22 08:36:39;;;;;;;9.10;4.00;;;23.10;62.80;;;;;;5077422;28;20493;-83
2022/08/22 08:39:18;;;;;;;9.77;3.70;;;23.20;61.90;;;;;;5090763;28;21068;-82
2022/08/22 08:42:18;;;;;;;7.43;3.30;;;23.20;61.00;;;;;;5059350;28;20465;-80
2022/08/22 08:45:06;;;;;;;9.20;3.20;;;23.30;60.40;;;;;;5094764;28;20465;-81
2022/08/22 08:47:52;;;;;;;8.50;3.43;;;23.40;60.50;;;;;;5078885;28;20502;-79
2022/08/22 08:51:01;;;;;;;8.27;3.73;;;23.50;59.90;;;;;;5078436;28;21193;-81
2022/08/22 08:54:03;;;;;;;5.90;3.10;;;23.60;60.00;;;;;;4992021;28;20463;-81
2022/08/22 08:56:38;;;;;;;8.57;3.40;;;23.70;59.60;;;;;;5074774;28;20490;-82
2022/08/22 08:59:26;;;;;;;8.83;3.47;;;23.80;59.40;;;;;;5064615;28;20481;-82
2022/08/22 09:02:23;;;;;;;7.17;3.40;;;23.80;59.10;;;;;;5084764;28;20483;-83
2022/08/22 09:05:24;;;;;;;8.27;3.70;;;23.90;58.90;;;;;;5064986;28;20466;-81
2022/08/22 09:08:23;;;;;;;8.10;3.90;;;23.90;58.00;;;;;;5070043;28;20461;-81
2022/08/22 09:11:37;;;;;;;7.93;3.40;;;23.90;58.10;;;;;;5077015;28;20520;-81
2022/08/22 09:14:23;;;;;;;10.03;4.00;;;24.00;57.80;;;;;;5080872;28;20461;-81
2022/08/22 09:17:20;;;;;;;8.23;3.30;;;24.10;58.00;;;;;;5077908;28;20486;-80
2022/08/22 09:20:15;;;;;;;7.90;3.50;;;24.10;57.80;;;;;;5077866;28;20524;-79
2022/08/22 09:23:34;;;;;;;6.77;3.23;;;24.20;57.10;;;;;;5079946;28;20466;-81
2022/08/22 09:26:08;;;;;;;10.57;3.67;;;24.20;57.40;;;;;;5083584;28;20467;-81
2022/08/22 09:28:41;;;;;;;7.07;3.63;;;24.30;57.30;;;;;;5083706;28;20458;-81
2022/08/22 09:31:32;;;;;;;7.33;4.33;;;24.30;57.30;;;;;;5076174;28;20507;-80
2022/08/22 09:34:26;;;;;;;6.17;4.10;;;24.30;57.20;;;;;;5078989;28;20914;-80
2022/08/22 09:37:08;;;;;;;8.30;3.50;;;24.30;57.40;;;;;;5080836;28;20872;-81
2022/08/22 09:39:52;;;;;;;5.77;3.37;;;24.40;57.00;;;;;;5081135;28;20586;-81
2022/08/22 09:42:30;;;;;;;10.33;4.10;;;24.50;56.90;;;;;;5080284;28;20464;-80
2022/08/22 09:45:34;;;;;;;7.80;3.13;;;24.50;56.70;;;;;;5068492;28;20468;-81
2022/08/22 09:48:12;;;;;;;9.63;3.87;;;24.60;56.80;;;;;;5078194;28;20477;-80
2022/08/22 09:50:48;;;;;;;9.83;3.27;;;24.70;56.70;;;;;;5071425;28;20452;-81
2022/08/22 09:53:42;;;;;;;8.77;3.60;;;24.70;56.60;;;;;;5090525;28;20456;-81
2022/08/22 09:56:18;;;;;;;6.87;2.97;;;24.70;56.50;;;;;;5079088;28;20481;-82
2022/08/22 09:58:57;;;;;;;6.93;2.73;;;24.70;56.50;;;;;;5082197;28;20816;-80
2022/08/22 10:01:30;;;;;;;5.70;3.47;;;24.70;56.20;;;;;;5081108;28;20478;-82
2022/08/22 10:04:40;;;;;;;5.77;3.10;;;24.80;55.70;;;;;;5097001;27;20457;-81
2022/08/22 10:07:28;;;;;;;5.10;2.60;;;24.90;55.50;;;;;;5062940;28;20477;-82
2022/08/22 10:10:05;;;;;;;7.80;3.20;;;24.90;55.00;;;;;;5080064;28;20462;-81
2022/08/22 10:12:43;;;;;;;8.30;3.97;;;24.80;54.80;;;;;;5078903;28;20455;-80
2022/08/22 10:15:21;;;;;;;7.60;3.40;;;24.90;54.60;;;;;;5076708;28;20988;-81
2022/08/22 10:18:05;;;;;;;6.87;2.90;;;25.00;54.70;;;;;;5080481;28;20451;-81
2022/08/22 10:20:51;;;;;;;9.03;3.00;;;25.10;54.30;;;;;;5077028;28;20860;-81
2022/08/22 10:23:23;;;;;;;6.73;3.10;;;25.10;54.00;;;;;;5081922;28;20464;-80
2022/08/22 10:25:59;;;;;;;7.33;2.70;;;25.20;54.00;;;;;;5084920;28;20471;-80
2022/08/22 10:28:38;;;;;;;5.03;2.47;;;25.20;53.90;;;;;;5078290;28;20460;-80
2022/08/22 10:31:23;;;;;;;5.53;2.70;;;25.20;53.70;;;;;;5081953;28;20487;-81
2022/08/22 10:34:00;;;;;;;6.47;2.80;;;25.20;53.70;;;;;;5074287;28;20553;-81
2022/08/22 10:36:34;;;;;;;8.77;2.43;;;25.20;53.20;;;;;;5073643;28;20482;-79
2022/08/22 10:39:08;;;;;;;9.57;2.80;;;25.20;53.00;;;;;;5059350;28;20496;-81
2022/08/22 10:41:57;;;;;;;6.50;2.63;;;25.40;53.20;;;;;;5078284;28;20482;-81
2022/08/22 10:44:35;;;;;;;6.57;2.37;;;25.50;52.80;;;;;;5077207;28;20482;-80
2022/08/22 10:47:08;;;;;;;7.83;2.77;;;25.60;52.50;;;;;;5072993;28;21727;-80
2022/08/22 10:49:41;;;;;;;5.33;2.60;;;25.70;52.30;;;;;;5077352;28;20459;-81
2022/08/22 10:52:14;;;;;;;6.80;2.70;;;25.70;51.90;;;;;;5081508;28;20456;-82
2022/08/22 10:54:50;;;;;;;9.00;2.87;;;25.70;51.90;;;;;;5079120;28;20454;-80
2022/08/22 10:57:31;;;;;;;9.40;2.80;;;25.70;51.80;;;;;;5074147;28;20449;-79
2022/08/22 11:00:08;;;;;;;4.83;2.47;;;25.70;51.60;;;;;;5074797;28;20477;-81
2022/08/22 11:02:45;;;;;;;6.47;2.60;;;25.70;51.50;;;;;;5067475;28;20476;-81
2022/08/22 11:05:31;;;;;;;6.97;2.60;;;25.80;51.50;;;;;;5073241;28;20831;-79
2022/08/22 11:08:21;;;;;;;5.60;2.20;;;26.00;51.30;;;;;;5070429;28;20473;-81
2022/08/22 11:11:06;;;;;;;8.30;2.80;;;26.10;51.00;;;;;;5073347;28;20440;-82
2022/08/22 11:13:40;;;;;;;6.90;2.70;;;26.10;51.00;;;;;;5074565;28;20463;-81
2022/08/22 11:16:27;;;;;;;6.87;2.80;;;26.20;50.90;;;;;;5073461;28;20483;-80
2022/08/22 11:19:15;;;;;;;9.97;2.60;;;26.20;50.70;;;;;;5073513;28;20615;-80
2022/08/22 11:21:50;;;;;;;6.30;2.60;;;26.10;50.50;;;;;;5066754;28;20497;-78
2022/08/22 11:24:46;;;;;;;6.57;2.37;;;26.10;50.50;;;;;;5071215;28;20545;-80
2022/08/22 11:27:34;;;;;;;5.60;2.40;;;26.10;50.50;;;;;;5071059;28;21144;-80
2022/08/22 11:30:11;;;;;;;7.07;2.40;;;26.10;50.40;;;;;;5071911;28;20945;-79
2022/08/22 11:33:11;;;;;;;5.60;2.20;;;26.10;50.10;;;;;;5063768;28;20458;-80
2022/08/22 11:35:44;;;;;;;4.97;2.00;;;26.20;50.20;;;;;;5069636;28;20498;-79
2022/08/22 11:38:23;;;;;;;6.97;2.70;;;26.30;50.20;;;;;;5068395;28;20462;-81
2022/08/22 11:41:08;;;;;;;8.47;2.60;;;26.40;49.70;;;;;;5070759;28;20487;-80
2022/08/22 11:43:48;;;;;;;5.50;2.50;;;26.40;49.70;;;;;;5060942;28;20461;-81
2022/08/22 11:46:24;;;;;;;7.57;2.77;;;26.40;49.60;;;;;;5052097;28;20480;-81
2022/08/22 11:49:33;;;;;;;8.30;2.60;;;26.40;49.60;;;;;;5056544;28;20471;-81
2022/08/22 11:52:15;;;;;;;4.60;2.47;;;26.30;49.70;;;;;;5011924;28;21095;-77
2022/08/22 11:54:59;;;;;;;8.47;2.47;;;26.30;49.60;;;;;;5008245;28;20475;-81
2022/08/22 11:57:35;;;;;;;7.27;2.43;;;26.20;49.70;;;;;;5052686;28;20466;-80
2022/08/22 12:00:15;;;;;;;5.93;2.20;;;26.20;49.50;;;;;;5072876;28;20464;-81
2022/08/22 12:03:24;;;;;;;7.43;2.57;;;26.20;49.30;;;;;;5072113;28;20442;-80
2022/08/22 12:05:57;;;;;;;6.20;2.40;;;26.20;49.30;;;;;;5017975;28;20521;-79
2022/08/22 12:08:56;;;;;;;4.67;2.30;;;26.30;49.20;;;;;;5070374;28;20704;-79
2022/08/22 12:11:33;;;;;;;9.33;3.07;;;26.40;49.00;;;;;;5071143;28;20465;-80
2022/08/22 12:14:07;;;;;;;6.23;2.40;;;26.40;49.00;;;;;;5068843;28;20458;-81
2022/08/22 12:16:43;;;;;;;7.10;2.60;;;26.40;48.90;;;;;;5071284;28;20478;-80
2022/08/22 12:19:22;;;;;;;5.80;2.30;;;26.40;48.90;;;;;;5069722;28;21058;-79
2022/08/22 12:22:07;;;;;;;4.77;2.07;;;26.40;49.00;;;;;;5071439;28;20482;-80
2022/08/22 12:24:49;;;;;;;5.73;2.40;;;26.40;48.80;;;;;;5073876;28;20456;-80
2022/08/22 12:27:41;;;;;;;6.60;2.50;;;26.40;48.90;;;;;;5073869;28;20467;-78
2022/08/22 12:30:26;;;;;;;6.90;3.00;;;26.40;48.90;;;;;;5074650;28;20570;-79
2022/08/22 12:33:17;;;;;;;8.20;2.80;;;26.30;48.90;;;;;;5077990;28;20477;-80
2022/08/22 12:35:59;;;;;;;7.00;2.90;;;26.30;48.80;;;;;;5072658;28;20476;-81
2022/08/22 12:38:48;;;;;;;5.20;2.57;;;26.30;48.90;;;;;;5074661;28;20462;-80
2022/08/22 12:41:58;;;;;;;7.20;2.77;;;26.20;48.90;;;;;;5077188;28;20481;-79
2022/08/22 12:44:37;;;;;;;5.80;2.40;;;26.30;48.80;;;;;;5070764;28;20522;-80
2022/08/22 12:47:22;;;;;;;6.57;2.70;;;26.30;48.80;;;;;;5073071;28;20536;-80
2022/08/22 12:50:11;;;;;;;6.23;1.90;;;26.40;48.80;;;;;;5070663;28;20461;-79
2022/08/22 12:53:05;;;;;;;7.70;2.40;;;26.40;48.50;;;;;;5077792;28;20509;-78
2022/08/22 12:55:45;;;;;;;4.93;1.93;;;26.40;48.50;;;;;;5083000;28;20484;-81
2022/08/22 12:58:25;;;;;;;7.17;2.30;;;26.50;48.50;;;;;;5081472;28;20513;-78
2022/08/22 13:01:05;;;;;;;6.37;2.40;;;26.60;48.30;;;;;;5066383;28;20491;-80
2022/08/22 13:03:40;;;;;;;5.30;2.10;;;26.60;48.40;;;;;;5081328;28;20591;-77
2022/08/22 13:06:46;;;;;;;7.13;2.23;;;26.70;48.30;;;;;;5085330;28;20485;-79
2022/08/22 13:09:22;;;;;;;4.53;2.20;;;26.80;48.10;;;;;;5081962;28;20459;-79
2022/08/22 13:12:03;;;;;;;5.30;2.27;;;26.90;48.10;;;;;;5086619;28;20751;-80
2022/08/22 13:14:33;;;;;;;6.70;2.20;;;26.90;47.70;;;;;;5089597;28;20472;-81
2022/08/22 13:17:07;;;;;;;5.23;2.30;;;26.90;47.80;;;;;;5086913;28;20490;-80
2022/08/22 13:20:08;;;;;;;6.13;2.60;;;26.80;47.80;;;;;;5081676;28;20831;-80
2022/08/22 13:22:41;;;;;;;4.63;2.00;;;26.80;47.70;;;;;;5087228;28;20929;-80
2022/08/22 13:25:22;;;;;;;6.10;2.60;;;26.70;47.80;;;;;;5060129;28;20484;-81
2022/08/22 13:27:56;;;;;;;8.63;2.50;;;26.70;47.80;;;;;;5068442;28;20817;-81
2022/08/22 13:30:31;;;;;;;8.10;2.40;;;26.70;48.00;;;;;;5074391;28;20987;-80
2022/08/22 13:33:05;;;;;;;7.77;2.80;;;26.70;47.80;;;;;;5077211;28;20493;-79
2022/08/22 13:35:41;;;;;;;7.60;2.40;;;26.80;48.00;;;;;;5064662;28;20479;-81
2022/08/22 13:38:23;;;;;;;5.10;2.23;;;26.80;47.80;;;;;;5074857;28;20456;-80
2022/08/22 13:40:56;;;;;;;6.20;2.03;;;26.90;47.60;;;;;;5074228;28;20465;-80
2022/08/22 13:43:26;;;;;;;5.23;2.60;;;26.90;47.60;;;;;;5075694;28;20461;-80
2022/08/22 13:45:58;;;;;;;7.10;2.90;;;27.00;47.60;;;;;;5072128;28;20638;-81
2022/08/22 13:48:43;;;;;;;7.57;2.30;;;27.00;47.70;;;;;;5068589;28;20449;-79
2022/08/22 13:51:21;;;;;;;9.47;1.93;;;27.10;47.50;;;;;;5051588;28;20543;-81
2022/08/22 13:53:54;;;;;;;4.87;1.60;;;27.20;47.40;;;;;;5075526;28;20460;-80